createdAt,value
2019-05-05T00:00:39.901Z,0.00
2019-05-05T00:01:39.915Z,0.00
2019-05-05T00:02:39.928Z,0.00
2019-05-05T00:03:39.939Z,0.00
2019-05-05T00:04:39.954Z,0.00
2019-05-05T00:05:39.969Z,0.00
2019-05-05T00:06:39.984Z,0.00
2019-05-05T00:07:39.999Z,0.00
2019-05-05T00:08:40.010Z,0.00
2019-05-05T00:09:40.026Z,0.00
2019-05-05T00:10:40.040Z,0.00
2019-05-05T00:11:40.055Z,0.00
2019-05-05T00:12:40.068Z,0.00
2019-05-05T00:13:40.084Z,0.00
2019-05-05T00:14:40.105Z,0.00
2019-05-05T00:15:40.113Z,0.00
2019-05-05T00:16:40.125Z,0.00
2019-05-05T00:17:40.142Z,0.00
2019-05-05T00:18:40.154Z,0.00
2019-05-05T00:19:40.173Z,0.00
2019-05-05T00:20:40.184Z,0.00
2019-05-05T00:21:40.199Z,0.00
2019-05-05T00:22:40.215Z,0.00
2019-05-05T00:23:40.229Z,0.00
2019-05-05T00:24:40.242Z,0.00
2019-05-05T00:25:40.255Z,0.00
2019-05-05T00:26:40.270Z,0.00
2019-05-05T00:27:40.285Z,0.00
2019-05-05T00:28:40.297Z,0.00
2019-05-05T00:29:40.309Z,0.00
2019-05-05T00:30:40.327Z,0.00
2019-05-05T00:31:40.340Z,0.00
2019-05-05T00:32:40.355Z,0.00
2019-05-05T00:33:40.369Z,0.00
2019-05-05T00:34:40.384Z,0.00
2019-05-05T00:35:40.393Z,0.00
2019-05-05T00:36:40.411Z,0.00
2019-05-05T00:37:40.422Z,0.00
2019-05-05T00:38:40.441Z,0.00
2019-05-05T00:39:40.451Z,0.00
2019-05-05T00:40:40.465Z,0.00
2019-05-05T00:41:40.480Z,0.00
2019-05-05T00:42:40.494Z,0.00
2019-05-05T00:43:40.511Z,0.00
2019-05-05T00:44:40.521Z,0.00
2019-05-05T00:45:40.539Z,0.00
2019-05-05T00:46:40.550Z,0.00
2019-05-05T00:47:40.564Z,0.00
2019-05-05T00:48:40.576Z,0.00
2019-05-05T00:49:46.424Z,0.00
2019-05-05T00:50:40.608Z,0.00
2019-05-05T00:51:40.625Z,0.00
2019-05-05T00:52:40.632Z,0.00
2019-05-05T00:53:40.648Z,0.00
2019-05-05T00:54:40.660Z,0.00
2019-05-05T00:55:40.674Z,0.00
2019-05-05T00:56:40.689Z,0.00
2019-05-05T00:57:40.704Z,0.00
2019-05-05T00:58:40.721Z,0.00
2019-05-05T00:59:40.735Z,0.00
2019-05-05T01:00:40.751Z,0.00
2019-05-05T01:01:40.758Z,0.00
2019-05-05T01:02:40.851Z,0.00
2019-05-05T01:03:40.911Z,0.00
2019-05-05T01:04:40.866Z,0.00
2019-05-05T01:05:40.902Z,0.00
2019-05-05T01:06:40.846Z,0.00
2019-05-05T01:07:40.896Z,0.00
2019-05-05T01:08:40.882Z,0.00
2019-05-05T01:09:40.928Z,0.00
2019-05-05T01:10:40.956Z,0.00
2019-05-05T01:11:40.903Z,0.00
2019-05-05T01:12:40.988Z,0.00
2019-05-05T01:13:40.953Z,0.00
2019-05-05T01:14:40.957Z,0.00
2019-05-05T01:15:41.006Z,0.00
2019-05-05T01:16:40.985Z,0.00
2019-05-05T01:17:40.995Z,0.00
2019-05-05T01:18:41.001Z,0.00
2019-05-05T01:19:41.028Z,0.00
2019-05-05T01:20:41.032Z,0.00
2019-05-05T01:21:41.173Z,0.00
2019-05-05T01:22:41.061Z,0.00
2019-05-05T01:23:41.072Z,0.00
2019-05-05T01:24:41.095Z,0.00
2019-05-05T01:25:41.096Z,0.00
2019-05-05T01:26:41.113Z,0.00
2019-05-05T01:27:41.130Z,0.00
2019-05-05T01:28:41.154Z,0.00
2019-05-05T01:29:41.152Z,0.00
2019-05-05T01:30:41.167Z,0.00
2019-05-05T01:31:41.185Z,0.00
2019-05-05T01:32:41.192Z,0.00
2019-05-05T01:33:41.206Z,0.00
2019-05-05T01:34:41.233Z,0.00
2019-05-05T01:35:41.238Z,0.00
2019-05-05T01:36:41.248Z,0.00
2019-05-05T01:37:41.269Z,0.00
2019-05-05T01:38:41.278Z,0.00
2019-05-05T01:39:41.292Z,0.00
2019-05-05T01:40:41.305Z,0.00
2019-05-05T01:41:41.334Z,0.00
2019-05-05T01:42:41.335Z,0.00
2019-05-05T01:43:41.346Z,0.00
2019-05-05T01:44:41.361Z,0.00
2019-05-05T01:45:41.377Z,0.00
2019-05-05T01:46:41.395Z,0.00
2019-05-05T01:47:41.405Z,0.00
2019-05-05T01:48:41.417Z,0.00
2019-05-05T01:49:41.430Z,0.00
2019-05-05T01:50:41.446Z,0.00
2019-05-05T01:51:41.456Z,0.00
2019-05-05T01:52:41.470Z,0.00
2019-05-05T01:53:41.488Z,0.00
2019-05-05T01:54:41.499Z,0.00
2019-05-05T01:55:41.513Z,0.00
2019-05-05T01:56:41.522Z,0.00
2019-05-05T01:57:41.536Z,0.00
2019-05-05T01:58:41.552Z,0.00
2019-05-05T01:59:41.568Z,0.00
2019-05-05T02:00:41.578Z,0.00
2019-05-05T02:01:41.594Z,0.00
2019-05-05T02:02:41.608Z,0.00
2019-05-05T02:03:41.621Z,0.00
2019-05-05T02:04:41.634Z,0.00
2019-05-05T02:05:41.646Z,0.00
2019-05-05T02:06:41.660Z,0.00
2019-05-05T02:07:41.673Z,0.00
2019-05-05T02:08:41.698Z,0.00
2019-05-05T02:09:41.703Z,0.00
2019-05-05T02:10:41.716Z,0.00
2019-05-05T02:11:41.732Z,0.00
2019-05-05T02:12:41.741Z,0.00
2019-05-05T02:13:41.761Z,0.00
2019-05-05T02:14:41.769Z,0.00
2019-05-05T02:15:41.784Z,0.00
2019-05-05T02:16:41.800Z,0.00
2019-05-05T02:17:41.815Z,0.00
2019-05-05T02:18:41.831Z,0.00
2019-05-05T02:19:41.845Z,0.00
2019-05-05T02:20:41.851Z,0.00
2019-05-05T02:21:41.868Z,0.00
2019-05-05T02:22:41.878Z,0.00
2019-05-05T02:23:41.893Z,0.00
2019-05-05T02:24:41.908Z,0.00
2019-05-05T02:25:41.922Z,0.00
2019-05-05T02:26:41.934Z,0.00
2019-05-05T02:27:41.945Z,0.00
2019-05-05T02:28:41.959Z,0.00
2019-05-05T02:29:41.972Z,0.00
2019-05-05T02:30:41.988Z,0.00
2019-05-05T02:31:42.006Z,0.00
2019-05-05T02:32:45.005Z,0.00
2019-05-05T02:33:42.029Z,0.00
2019-05-05T02:34:42.044Z,0.00
2019-05-05T02:35:42.058Z,0.00
2019-05-05T02:36:42.071Z,0.00
2019-05-05T02:37:45.457Z,0.00
2019-05-05T02:38:42.100Z,0.00
2019-05-05T02:39:45.013Z,0.00
2019-05-05T02:40:42.124Z,0.00
2019-05-05T02:41:45.055Z,0.00
2019-05-05T02:42:42.150Z,0.00
2019-05-05T02:43:44.807Z,0.00
2019-05-05T02:44:45.367Z,0.00
2019-05-05T02:45:44.205Z,0.00
2019-05-05T02:46:44.587Z,0.00
2019-05-05T02:47:44.954Z,0.00
2019-05-05T02:48:44.860Z,0.00
2019-05-05T02:49:45.216Z,0.00
2019-05-05T02:50:52.503Z,0.00
2019-05-05T02:51:44.673Z,0.00
2019-05-05T02:52:44.214Z,0.00
2019-05-05T02:53:43.965Z,0.00
2019-05-05T02:54:44.137Z,0.00
2019-05-05T02:55:44.227Z,0.00
2019-05-05T02:56:43.646Z,0.00
2019-05-05T02:57:43.937Z,0.00
2019-05-05T02:58:44.343Z,0.00
2019-05-05T02:59:43.490Z,0.00
2019-05-05T03:00:43.754Z,0.00
2019-05-05T03:01:44.476Z,0.00
2019-05-05T03:02:43.491Z,0.00
2019-05-05T03:03:43.794Z,0.00
2019-05-05T03:04:44.336Z,0.00
2019-05-05T03:05:43.475Z,0.00
2019-05-05T03:06:43.729Z,0.00
2019-05-05T03:07:43.747Z,0.00
2019-05-05T03:08:44.011Z,0.00
2019-05-05T03:09:43.962Z,0.00
2019-05-05T03:10:44.227Z,0.00
2019-05-05T03:11:43.655Z,0.00
2019-05-05T03:12:43.937Z,0.00
2019-05-05T03:13:44.237Z,0.00
2019-05-05T03:14:44.486Z,0.00
2019-05-05T03:15:44.137Z,0.00
2019-05-05T03:16:43.519Z,0.00
2019-05-05T03:17:44.467Z,0.00
2019-05-05T03:18:43.950Z,0.00
2019-05-05T03:19:44.421Z,0.00
2019-05-05T03:20:43.604Z,0.00
2019-05-05T03:21:44.192Z,0.00
2019-05-05T03:22:43.480Z,0.00
2019-05-05T03:23:44.054Z,0.00
2019-05-05T03:24:44.508Z,0.00
2019-05-05T03:25:44.026Z,0.00
2019-05-05T03:26:44.369Z,0.00
2019-05-05T03:27:44.536Z,0.00
2019-05-05T03:28:43.816Z,0.00
2019-05-05T03:29:44.204Z,0.00
2019-05-05T03:30:45.431Z,0.00
2019-05-05T03:31:45.816Z,0.00
2019-05-05T03:32:45.587Z,0.00
2019-05-05T03:33:45.966Z,0.00
2019-05-05T03:34:44.522Z,0.00
2019-05-05T03:35:43.636Z,5.63
2019-05-05T03:36:44.198Z,5.63
2019-05-05T03:37:44.602Z,5.63
2019-05-05T03:38:44.400Z,5.63
2019-05-05T03:39:44.472Z,5.63
2019-05-05T03:40:43.657Z,5.63
2019-05-05T03:41:43.800Z,5.63
2019-05-05T03:42:44.250Z,5.63
2019-05-05T03:43:43.429Z,5.63
2019-05-05T03:44:44.038Z,11.25
2019-05-05T03:45:44.479Z,11.25
2019-05-05T03:46:43.859Z,11.25
2019-05-05T03:47:44.104Z,11.25
2019-05-05T03:48:43.822Z,11.25
2019-05-05T03:49:44.193Z,11.25
2019-05-05T03:50:44.624Z,16.88
2019-05-05T03:51:43.848Z,16.88
2019-05-05T03:52:43.850Z,16.88
2019-05-05T03:53:44.137Z,16.88
2019-05-05T03:54:43.576Z,22.50
2019-05-05T03:55:43.947Z,22.50
2019-05-05T03:56:44.211Z,22.50
2019-05-05T03:57:44.479Z,22.50
2019-05-05T03:58:43.727Z,28.13
2019-05-05T03:59:44.294Z,28.13
2019-05-05T04:00:43.354Z,33.75
2019-05-05T04:01:43.972Z,33.75
2019-05-05T04:02:44.548Z,39.38
2019-05-05T04:03:43.564Z,39.38
2019-05-05T04:04:44.105Z,45.00
2019-05-05T04:05:44.443Z,45.00
2019-05-05T04:06:44.556Z,50.63
2019-05-05T04:07:43.993Z,50.63
2019-05-05T04:08:44.486Z,50.63
2019-05-05T04:09:43.846Z,56.25
2019-05-05T04:10:43.918Z,61.88
2019-05-05T04:11:44.384Z,61.88
2019-05-05T04:12:43.600Z,67.50
2019-05-05T04:13:43.821Z,67.50
2019-05-05T04:14:44.031Z,73.13
2019-05-05T04:15:44.165Z,78.75
2019-05-05T04:16:43.625Z,78.75
2019-05-05T04:17:44.321Z,84.38
2019-05-05T04:18:43.630Z,90.00
2019-05-05T04:19:43.657Z,90.00
2019-05-05T04:20:44.210Z,90.00
2019-05-05T04:21:44.918Z,90.00
2019-05-05T04:22:43.593Z,90.00
2019-05-05T04:23:44.192Z,95.63
2019-05-05T04:24:43.724Z,95.63
2019-05-05T04:25:44.016Z,95.63
2019-05-05T04:26:44.078Z,90.00
2019-05-05T04:27:44.482Z,90.00
2019-05-05T04:28:43.740Z,90.00
2019-05-05T04:29:44.098Z,90.00
2019-05-05T04:30:44.446Z,84.38
2019-05-05T04:31:43.632Z,78.75
2019-05-05T04:32:43.988Z,78.75
2019-05-05T04:33:44.511Z,67.50
2019-05-05T04:34:44.121Z,67.50
2019-05-05T04:35:44.443Z,67.50
2019-05-05T04:36:44.402Z,61.88
2019-05-05T04:37:43.909Z,50.63
2019-05-05T04:38:44.092Z,50.63
2019-05-05T04:39:44.401Z,45.00
2019-05-05T04:40:43.760Z,45.00
2019-05-05T04:41:44.097Z,45.00
2019-05-05T04:42:44.199Z,45.00
2019-05-05T04:43:44.292Z,45.00
2019-05-05T04:44:44.912Z,45.00
2019-05-05T04:45:43.833Z,45.00
2019-05-05T04:46:44.340Z,45.00
2019-05-05T04:47:43.864Z,50.63
2019-05-05T04:48:43.987Z,50.63
2019-05-05T04:49:44.541Z,56.25
2019-05-05T04:50:44.131Z,56.25
2019-05-05T04:51:49.505Z,56.25
2019-05-05T04:52:43.936Z,56.25
2019-05-05T04:53:43.942Z,56.25
2019-05-05T04:54:44.011Z,56.25
2019-05-05T04:55:44.332Z,56.25
2019-05-05T04:56:44.778Z,61.88
2019-05-05T04:57:44.002Z,61.88
2019-05-05T04:58:44.106Z,61.88
2019-05-05T04:59:44.486Z,67.50
2019-05-05T05:00:44.245Z,67.50
2019-05-05T05:01:44.087Z,73.13
2019-05-05T05:02:44.075Z,73.13
2019-05-05T05:03:44.093Z,78.75
2019-05-05T05:04:44.141Z,78.75
2019-05-05T05:05:44.227Z,78.75
2019-05-05T05:06:44.266Z,78.75
2019-05-05T05:07:44.155Z,84.38
2019-05-05T05:08:44.435Z,84.38
2019-05-05T05:09:44.178Z,90.00
2019-05-05T05:10:44.195Z,95.63
2019-05-05T05:11:44.380Z,106.88
2019-05-05T05:12:44.230Z,118.13
2019-05-05T05:13:44.239Z,129.38
2019-05-05T05:14:44.293Z,151.88
2019-05-05T05:15:44.713Z,174.38
2019-05-05T05:16:44.278Z,191.25
2019-05-05T05:17:44.510Z,208.13
2019-05-05T05:18:44.725Z,219.38
2019-05-05T05:19:44.329Z,230.63
2019-05-05T05:20:44.468Z,247.50
2019-05-05T05:21:57.600Z,241.88
2019-05-05T05:22:44.367Z,247.50
2019-05-05T05:23:44.599Z,253.13
2019-05-05T05:24:44.736Z,270.00
2019-05-05T05:25:44.423Z,286.88
2019-05-05T05:26:44.438Z,360.00
2019-05-05T05:27:44.495Z,298.13
2019-05-05T05:28:44.883Z,298.13
2019-05-05T05:29:44.473Z,309.38
2019-05-05T05:30:44.485Z,331.88
2019-05-05T05:31:44.524Z,405.00
2019-05-05T05:32:44.729Z,877.50
2019-05-05T05:33:44.535Z,523.13
2019-05-05T05:34:44.548Z,500.63
2019-05-05T05:35:44.571Z,1372.50
2019-05-05T05:36:44.578Z,1164.38
2019-05-05T05:37:44.917Z,871.88
2019-05-05T05:38:44.619Z,517.50
2019-05-05T05:39:44.637Z,489.38
2019-05-05T05:40:44.644Z,1423.13
2019-05-05T05:41:44.668Z,590.63
2019-05-05T05:42:44.676Z,613.13
2019-05-05T05:43:44.696Z,703.13
2019-05-05T05:44:44.710Z,1552.50
2019-05-05T05:45:44.732Z,1929.38
2019-05-05T05:46:44.748Z,1462.50
2019-05-05T05:47:44.765Z,1777.50
2019-05-05T05:48:44.796Z,1620.00
2019-05-05T05:49:44.803Z,1867.50
2019-05-05T05:50:44.826Z,590.63
2019-05-05T05:51:44.840Z,731.25
2019-05-05T05:52:44.861Z,708.75
2019-05-05T05:53:44.880Z,433.13
2019-05-05T05:54:44.894Z,382.50
2019-05-05T05:55:44.951Z,376.88
2019-05-05T05:56:44.928Z,382.50
2019-05-05T05:57:44.954Z,393.75
2019-05-05T05:58:44.979Z,388.13
2019-05-05T05:59:44.990Z,388.13
2019-05-05T06:00:45.013Z,393.75
2019-05-05T06:01:45.032Z,421.88
2019-05-05T06:02:45.041Z,427.50
2019-05-05T06:03:45.066Z,399.38
2019-05-05T06:04:45.080Z,371.25
2019-05-05T06:05:45.127Z,348.75
2019-05-05T06:06:45.128Z,298.13
2019-05-05T06:07:45.268Z,270.00
2019-05-05T06:08:45.158Z,247.50
2019-05-05T06:09:45.173Z,236.25
2019-05-05T06:10:45.188Z,241.88
2019-05-05T06:11:45.208Z,270.00
2019-05-05T06:12:45.228Z,298.13
2019-05-05T06:13:47.569Z,320.63
2019-05-05T06:14:45.264Z,343.13
2019-05-05T06:15:45.286Z,348.75
2019-05-05T06:16:45.295Z,309.38
2019-05-05T06:17:45.325Z,275.63
2019-05-05T06:18:45.333Z,270.00
2019-05-05T06:19:45.348Z,275.63
2019-05-05T06:20:45.365Z,292.50
2019-05-05T06:21:45.386Z,303.75
2019-05-05T06:22:45.406Z,337.50
2019-05-05T06:23:45.417Z,292.50
2019-05-05T06:24:45.437Z,298.13
2019-05-05T06:25:45.454Z,298.13
2019-05-05T06:26:45.472Z,298.13
2019-05-05T06:27:45.488Z,292.50
2019-05-05T06:28:45.506Z,298.13
2019-05-05T06:29:45.529Z,303.75
2019-05-05T06:30:45.540Z,331.88
2019-05-05T06:31:45.558Z,360.00
2019-05-05T06:32:45.795Z,371.25
2019-05-05T06:33:45.592Z,388.13
2019-05-05T06:34:45.608Z,405.00
2019-05-05T06:35:45.624Z,433.13
2019-05-05T06:36:45.644Z,455.63
2019-05-05T06:37:46.704Z,455.63
2019-05-05T06:38:45.677Z,444.38
2019-05-05T06:39:45.698Z,416.25
2019-05-05T06:40:45.711Z,388.13
2019-05-05T06:41:45.733Z,371.25
2019-05-05T06:42:45.755Z,365.63
2019-05-05T06:43:45.767Z,371.25
2019-05-05T06:44:45.783Z,382.50
2019-05-05T06:45:45.800Z,393.75
2019-05-05T06:46:45.819Z,405.00
2019-05-05T06:47:45.835Z,410.63
2019-05-05T06:48:45.854Z,388.13
2019-05-05T06:49:45.876Z,371.25
2019-05-05T06:50:45.890Z,354.38
2019-05-05T06:51:45.906Z,331.88
2019-05-05T06:52:47.176Z,303.75
2019-05-05T06:53:45.954Z,281.25
2019-05-05T06:54:45.962Z,247.50
2019-05-05T06:55:45.979Z,253.13
2019-05-05T06:56:46.002Z,286.88
2019-05-05T06:57:46.016Z,360.00
2019-05-05T06:58:46.037Z,444.38
2019-05-05T06:59:46.051Z,523.13
2019-05-05T07:00:46.070Z,545.63
2019-05-05T07:01:46.087Z,534.38
2019-05-05T07:02:46.105Z,472.50
2019-05-05T07:03:46.120Z,427.50
2019-05-05T07:04:46.140Z,416.25
2019-05-05T07:05:46.159Z,421.88
2019-05-05T07:06:54.089Z,444.38
2019-05-05T07:07:46.193Z,483.75
2019-05-05T07:08:46.222Z,495.00
2019-05-05T07:09:46.232Z,427.50
2019-05-05T07:10:46.249Z,371.25
2019-05-05T07:11:46.267Z,365.63
2019-05-05T07:12:46.285Z,393.75
2019-05-05T07:13:46.308Z,455.63
2019-05-05T07:14:46.320Z,562.50
2019-05-05T07:15:46.344Z,630.00
2019-05-05T07:16:46.359Z,613.13
2019-05-05T07:17:46.382Z,540.00
2019-05-05T07:18:46.396Z,483.75
2019-05-05T07:19:46.426Z,478.13
2019-05-05T07:20:46.435Z,433.13
2019-05-05T07:21:46.454Z,393.75
2019-05-05T07:22:58.727Z,382.50
2019-05-05T07:23:46.489Z,388.13
2019-05-05T07:24:46.508Z,399.38
2019-05-05T07:25:46.527Z,410.63
2019-05-05T07:26:46.547Z,410.63
2019-05-05T07:27:46.564Z,405.00
2019-05-05T07:28:46.584Z,438.75
2019-05-05T07:29:46.602Z,523.13
2019-05-05T07:30:46.721Z,590.63
2019-05-05T07:31:46.634Z,534.38
2019-05-05T07:32:46.661Z,523.13
2019-05-05T07:33:46.674Z,506.25
2019-05-05T07:34:46.691Z,466.88
2019-05-05T07:35:56.846Z,444.38
2019-05-05T07:36:46.738Z,461.25
2019-05-05T07:37:46.750Z,489.38
2019-05-05T07:38:46.851Z,500.63
2019-05-05T07:39:47.027Z,495.00
2019-05-05T07:40:46.860Z,540.00
2019-05-05T07:41:46.904Z,596.25
2019-05-05T07:42:46.896Z,506.25
2019-05-05T07:43:46.867Z,534.38
2019-05-05T07:44:46.914Z,573.75
2019-05-05T07:45:46.950Z,601.88
2019-05-05T07:46:46.929Z,691.88
2019-05-05T07:47:47.543Z,635.63
2019-05-05T07:48:46.971Z,641.25
2019-05-05T07:49:46.983Z,601.88
2019-05-05T07:50:58.144Z,540.00
2019-05-05T07:51:47.071Z,630.00
2019-05-05T07:52:47.169Z,646.88
2019-05-05T07:53:47.053Z,652.50
2019-05-05T07:54:47.077Z,641.25
2019-05-05T07:55:47.102Z,652.50
2019-05-05T07:56:47.113Z,635.63
2019-05-05T07:57:47.135Z,708.75
2019-05-05T07:58:47.150Z,641.25
2019-05-05T07:59:47.170Z,495.00
2019-05-05T08:00:47.197Z,545.63
2019-05-05T08:01:47.209Z,703.13
2019-05-05T08:02:47.230Z,663.75
2019-05-05T08:03:47.247Z,624.38
2019-05-05T08:04:47.273Z,545.63
2019-05-05T08:05:47.287Z,613.13
2019-05-05T08:06:47.311Z,675.00
2019-05-05T08:07:47.328Z,607.50
2019-05-05T08:08:47.355Z,624.38
2019-05-05T08:09:47.371Z,663.75
2019-05-05T08:10:47.387Z,635.63
2019-05-05T08:11:47.407Z,725.63
2019-05-05T08:12:47.431Z,675.00
2019-05-05T08:13:47.450Z,652.50
2019-05-05T08:14:47.474Z,658.13
2019-05-05T08:15:59.061Z,691.88
2019-05-05T08:16:47.514Z,686.25
2019-05-05T08:17:47.544Z,686.25
2019-05-05T08:18:47.552Z,641.25
2019-05-05T08:19:47.579Z,630.00
2019-05-05T08:20:47.599Z,596.25
2019-05-05T08:21:47.616Z,523.13
2019-05-05T08:22:47.636Z,517.50
2019-05-05T08:23:47.655Z,483.75
2019-05-05T08:24:47.679Z,472.50
2019-05-05T08:25:47.702Z,466.88
2019-05-05T08:26:47.741Z,472.50
2019-05-05T08:27:47.740Z,495.00
2019-05-05T08:28:47.760Z,528.75
2019-05-05T08:29:47.781Z,551.25
2019-05-05T08:30:47.812Z,556.88
2019-05-05T08:31:47.825Z,517.50
2019-05-05T08:32:47.842Z,478.13
2019-05-05T08:33:47.865Z,489.38
2019-05-05T08:34:57.435Z,489.38
2019-05-05T08:35:47.906Z,511.88
2019-05-05T08:36:47.928Z,528.75
2019-05-05T08:37:47.946Z,534.38
2019-05-05T08:38:47.967Z,540.00
2019-05-05T08:39:47.989Z,517.50
2019-05-05T08:40:48.011Z,545.63
2019-05-05T08:41:48.029Z,540.00
2019-05-05T08:42:48.055Z,523.13
2019-05-05T08:43:48.069Z,450.00
2019-05-05T08:44:48.090Z,466.88
2019-05-05T08:45:48.111Z,483.75
2019-05-05T08:46:48.130Z,455.63
2019-05-05T08:47:48.152Z,472.50
2019-05-05T08:48:48.173Z,506.25
2019-05-05T08:49:48.196Z,534.38
2019-05-05T08:50:48.214Z,545.63
2019-05-05T08:51:48.234Z,568.13
2019-05-05T08:52:48.256Z,556.88
2019-05-05T08:53:48.572Z,585.00
2019-05-05T08:54:48.296Z,579.38
2019-05-05T08:55:48.317Z,568.13
2019-05-05T08:56:48.336Z,511.88
2019-05-05T08:57:48.491Z,405.00
2019-05-05T08:58:49.958Z,365.63
2019-05-05T08:59:48.399Z,376.88
2019-05-05T09:00:48.420Z,410.63
2019-05-05T09:01:48.441Z,438.75
2019-05-05T09:02:48.462Z,478.13
2019-05-05T09:03:48.481Z,506.25
2019-05-05T09:04:48.510Z,517.50
2019-05-05T09:05:48.524Z,506.25
2019-05-05T09:06:48.550Z,534.38
2019-05-05T09:07:48.566Z,478.13
2019-05-05T09:08:48.684Z,450.00
2019-05-05T09:09:48.608Z,455.63
2019-05-05T09:10:48.628Z,523.13
2019-05-05T09:11:48.647Z,500.63
2019-05-05T09:12:48.670Z,500.63
2019-05-05T09:13:48.693Z,495.00
2019-05-05T09:14:48.708Z,478.13
2019-05-05T09:15:48.733Z,455.63
2019-05-05T09:16:48.752Z,433.13
2019-05-05T09:17:48.772Z,393.75
2019-05-05T09:18:48.793Z,388.13
2019-05-05T09:19:48.813Z,388.13
2019-05-05T09:20:48.835Z,382.50
2019-05-05T09:21:48.850Z,371.25
2019-05-05T09:22:48.872Z,354.38
2019-05-05T09:23:59.112Z,343.13
2019-05-05T09:24:48.911Z,331.88
2019-05-05T09:25:48.932Z,326.25
2019-05-05T09:26:48.951Z,331.88
2019-05-05T09:27:48.974Z,337.50
2019-05-05T09:28:48.994Z,348.75
2019-05-05T09:29:49.015Z,388.13
2019-05-05T09:30:49.041Z,433.13
2019-05-05T09:31:49.052Z,444.38
2019-05-05T09:32:49.074Z,438.75
2019-05-05T09:33:49.099Z,433.13
2019-05-05T09:34:49.116Z,427.50
2019-05-05T09:35:49.133Z,416.25
2019-05-05T09:36:49.154Z,438.75
2019-05-05T09:37:49.173Z,478.13
2019-05-05T09:38:49.194Z,489.38
2019-05-05T09:39:49.210Z,506.25
2019-05-05T09:40:49.233Z,517.50
2019-05-05T09:41:49.250Z,523.13
2019-05-05T09:42:49.277Z,517.50
2019-05-05T09:43:49.296Z,562.50
2019-05-05T09:44:49.378Z,573.75
2019-05-05T09:45:49.331Z,562.50
2019-05-05T09:46:49.351Z,585.00
2019-05-05T09:47:49.372Z,596.25
2019-05-05T09:48:49.392Z,573.75
2019-05-05T09:49:49.409Z,506.25
2019-05-05T09:50:49.433Z,466.88
2019-05-05T09:51:49.447Z,472.50
2019-05-05T09:52:49.474Z,438.75
2019-05-05T09:53:49.494Z,461.25
2019-05-05T09:54:49.513Z,478.13
2019-05-05T09:55:49.532Z,472.50
2019-05-05T09:56:49.554Z,427.50
2019-05-05T09:57:49.574Z,472.50
2019-05-05T09:58:49.597Z,528.75
2019-05-05T09:59:49.615Z,562.50
2019-05-05T10:00:49.643Z,579.38
2019-05-05T10:01:49.656Z,562.50
2019-05-05T10:02:49.676Z,624.38
2019-05-05T10:03:49.698Z,562.50
2019-05-05T10:04:49.736Z,568.13
2019-05-05T10:05:49.742Z,523.13
2019-05-05T10:06:49.757Z,483.75
2019-05-05T10:07:49.782Z,427.50
2019-05-05T10:08:49.801Z,399.38
2019-05-05T10:09:49.822Z,388.13
2019-05-05T10:10:49.842Z,360.00
2019-05-05T10:11:49.866Z,331.88
2019-05-05T10:12:52.376Z,292.50
2019-05-05T10:13:49.904Z,270.00
2019-05-05T10:14:49.929Z,264.38
2019-05-05T10:15:49.949Z,264.38
2019-05-05T10:16:49.991Z,270.00
2019-05-05T10:17:49.987Z,292.50
2019-05-05T10:18:50.018Z,303.75
2019-05-05T10:19:50.026Z,326.25
2019-05-05T10:20:50.045Z,348.75
2019-05-05T10:21:50.070Z,365.63
2019-05-05T10:22:50.094Z,382.50
2019-05-05T10:23:50.113Z,382.50
2019-05-05T10:24:50.130Z,382.50
2019-05-05T10:25:50.152Z,376.88
2019-05-05T10:26:50.171Z,371.25
2019-05-05T10:27:50.191Z,365.63
2019-05-05T10:28:50.210Z,360.00
2019-05-05T10:29:50.248Z,348.75
2019-05-05T10:30:50.254Z,331.88
2019-05-05T10:31:50.269Z,331.88
2019-05-05T10:32:50.291Z,337.50
2019-05-05T10:33:50.310Z,337.50
2019-05-05T10:34:50.337Z,337.50
2019-05-05T10:35:50.350Z,326.25
2019-05-05T10:36:50.384Z,315.00
2019-05-05T10:37:50.413Z,303.75
2019-05-05T10:38:50.415Z,292.50
2019-05-05T10:39:50.445Z,292.50
2019-05-05T10:40:50.453Z,281.25
2019-05-05T10:41:50.474Z,275.63
2019-05-05T10:42:50.508Z,281.25
2019-05-05T10:43:50.509Z,292.50
2019-05-05T10:44:50.548Z,315.00
2019-05-05T10:45:50.564Z,348.75
2019-05-05T10:46:50.584Z,382.50
2019-05-05T10:47:50.606Z,405.00
2019-05-05T10:48:50.615Z,410.63
2019-05-05T10:49:50.632Z,405.00
2019-05-05T10:50:50.668Z,382.50
2019-05-05T10:51:50.672Z,360.00
2019-05-05T10:52:50.724Z,337.50
2019-05-05T10:53:50.735Z,315.00
2019-05-05T10:54:50.869Z,309.38
2019-05-05T10:55:50.758Z,315.00
2019-05-05T10:56:50.775Z,331.88
2019-05-05T10:57:50.790Z,354.38
2019-05-05T10:58:50.810Z,376.88
2019-05-05T10:59:50.828Z,388.13
2019-05-05T11:00:50.847Z,388.13
2019-05-05T11:01:50.876Z,388.13
2019-05-05T11:02:50.897Z,405.00
2019-05-05T11:03:51.040Z,421.88
2019-05-05T11:04:50.940Z,455.63
2019-05-05T11:05:50.951Z,483.75
2019-05-05T11:06:50.964Z,500.63
2019-05-05T11:07:50.998Z,511.88
2019-05-05T11:08:51.004Z,511.88
2019-05-05T11:09:51.038Z,523.13
2019-05-05T11:10:51.052Z,534.38
2019-05-05T11:11:51.078Z,545.63
2019-05-05T11:12:51.092Z,545.63
2019-05-05T11:13:51.109Z,551.25
2019-05-05T11:14:51.123Z,551.25
2019-05-05T11:15:51.178Z,556.88
2019-05-05T11:16:51.167Z,556.88
2019-05-05T11:17:51.195Z,545.63
2019-05-05T11:18:51.226Z,517.50
2019-05-05T11:19:51.227Z,483.75
2019-05-05T11:20:51.267Z,444.38
2019-05-05T11:21:51.266Z,427.50
2019-05-05T11:22:51.306Z,416.25
2019-05-05T11:23:51.303Z,427.50
2019-05-05T11:24:58.220Z,399.38
2019-05-05T11:25:51.340Z,393.75
2019-05-05T11:26:51.520Z,410.63
2019-05-05T11:27:51.383Z,399.38
2019-05-05T11:28:51.405Z,388.13
2019-05-05T11:29:51.423Z,382.50
2019-05-05T11:30:53.617Z,388.13
2019-05-05T11:31:51.462Z,382.50
2019-05-05T11:32:51.487Z,371.25
2019-05-05T11:33:51.515Z,360.00
2019-05-05T11:34:53.068Z,354.38
2019-05-05T11:35:53.766Z,354.38
2019-05-05T11:36:51.563Z,360.00
2019-05-05T11:37:51.588Z,360.00
2019-05-05T11:38:53.528Z,365.63
2019-05-05T11:39:53.555Z,292.50
2019-05-05T11:40:51.651Z,348.75
2019-05-05T11:41:51.678Z,416.25
2019-05-05T11:42:54.058Z,455.63
2019-05-05T11:43:53.460Z,489.38
2019-05-05T11:44:51.745Z,523.13
2019-05-05T11:45:51.756Z,534.38
2019-05-05T11:46:51.790Z,534.38
2019-05-05T11:47:53.523Z,523.13
2019-05-05T11:48:51.809Z,489.38
2019-05-05T11:49:54.612Z,489.38
2019-05-05T11:50:53.814Z,478.13
2019-05-05T11:51:53.926Z,483.75
2019-05-05T11:52:51.896Z,478.13
2019-05-05T11:53:53.864Z,506.25
2019-05-05T11:54:51.940Z,500.63
2019-05-05T11:55:51.953Z,461.25
2019-05-05T11:56:53.882Z,489.38
2019-05-05T11:57:54.126Z,511.88
2019-05-05T11:58:52.021Z,444.38
2019-05-05T11:59:53.940Z,410.63
2019-05-05T12:00:54.316Z,461.25
2019-05-05T12:01:54.686Z,393.75
2019-05-05T12:02:52.103Z,416.25
2019-05-05T12:03:53.591Z,472.50
2019-05-05T12:04:53.949Z,500.63
2019-05-05T12:05:52.171Z,421.88
2019-05-05T12:06:52.191Z,388.13
2019-05-05T12:07:54.065Z,371.25
2019-05-05T12:08:52.230Z,371.25
2019-05-05T12:09:54.739Z,376.88
2019-05-05T12:10:54.091Z,382.50
2019-05-05T12:11:54.340Z,393.75
2019-05-05T12:12:53.702Z,393.75
2019-05-05T12:13:54.445Z,393.75
2019-05-05T12:14:53.921Z,405.00
2019-05-05T12:15:53.823Z,382.50
2019-05-05T12:16:52.400Z,371.25
2019-05-05T12:17:54.437Z,382.50
2019-05-05T12:18:53.917Z,393.75
2019-05-05T12:19:54.086Z,388.13
2019-05-05T12:20:54.383Z,382.50
2019-05-05T12:21:54.577Z,393.75
2019-05-05T12:22:53.897Z,405.00
2019-05-05T12:23:54.503Z,416.25
2019-05-05T12:24:53.526Z,427.50
2019-05-05T12:25:56.897Z,466.88
2019-05-05T12:26:54.225Z,478.13
2019-05-05T12:27:52.633Z,500.63
2019-05-05T12:28:54.519Z,500.63
2019-05-05T12:29:54.438Z,472.50
2019-05-05T12:30:52.804Z,466.88
2019-05-05T12:31:52.856Z,438.75
2019-05-05T12:32:52.796Z,399.38
2019-05-05T12:33:54.782Z,343.13
2019-05-05T12:34:53.751Z,343.13
2019-05-05T12:35:54.000Z,247.50
2019-05-05T12:36:53.933Z,219.38
2019-05-05T12:37:53.828Z,196.88
2019-05-05T12:38:54.638Z,185.63
2019-05-05T12:39:54.536Z,174.38
2019-05-05T12:40:53.535Z,157.50
2019-05-05T12:41:54.242Z,140.63
2019-05-05T12:42:54.309Z,135.00
2019-05-05T12:43:54.963Z,129.38
2019-05-05T12:44:53.739Z,129.38